createdAt,value
2019-02-04T14:17:39.568Z,19.901123
2019-02-04T14:17:49.653Z,19.961548
2019-02-04T14:17:58.627Z,19.941406
2019-02-04T14:18:08.628Z,19.941406
2019-02-04T14:18:18.630Z,19.941406
2019-02-04T14:18:28.723Z,19.921265
2019-02-04T14:18:38.769Z,19.891052
2019-02-04T14:18:48.762Z,19.86084
2019-02-04T14:18:58.861Z,19.840698
2019-02-04T14:19:08.754Z,19.820557
2019-02-04T14:19:18.792Z,19.840698
2019-02-04T14:19:28.721Z,19.86084
2019-02-04T14:19:38.785Z,19.961548
2019-02-04T14:19:48.900Z,19.971619
2019-02-04T14:19:58.817Z,19.99176
2019-02-04T14:20:08.828Z,19.99176
2019-02-04T14:20:18.823Z,19.961548
2019-02-04T14:20:28.819Z,20.072327
2019-02-04T14:20:38.938Z,20.444946
2019-02-04T14:20:48.900Z,20.646362
2019-02-04T14:20:58.820Z,20.737
2019-02-04T14:21:08.989Z,20.888062
2019-02-04T14:21:18.900Z,21.039124
2019-02-04T14:21:28.841Z,21.099548
2019-02-04T14:21:38.901Z,21.079407
2019-02-04T14:21:48.861Z,20.99884
2019-02-04T14:22:08.840Z,20.898132
2019-02-04T14:22:10.006Z,20.847778
2019-02-04T14:22:18.979Z,20.726929
2019-02-04T14:22:29.162Z,20.636292
2019-02-04T14:22:39.140Z,20.4953
2019-02-04T14:22:48.940Z,20.414734
2019-02-04T14:22:58.950Z,20.303955
2019-02-04T14:23:09.005Z,20.223389
2019-02-04T14:23:18.989Z,20.152893
2019-02-04T14:23:28.979Z,20.092468
2019-02-04T14:23:38.983Z,20.021973
2019-02-04T14:23:48.980Z,19.971619
2019-02-04T14:23:58.988Z,19.901123
2019-02-04T14:24:09.020Z,19.840698
2019-02-04T14:24:18.940Z,19.780273
2019-02-04T14:24:29.019Z,19.719849
2019-02-04T14:24:38.988Z,19.669495
2019-02-04T14:24:48.988Z,19.588928
2019-02-04T14:24:59.020Z,19.528503
2019-02-04T14:25:09.021Z,19.48822
2019-02-04T14:25:19.060Z,19.437866
2019-02-04T14:25:29.020Z,19.417725
2019-02-04T14:25:38.983Z,19.407654
2019-02-04T14:25:49.060Z,19.377441
2019-02-04T14:25:59.020Z,19.367371
2019-02-04T14:26:09.061Z,19.337158
2019-02-04T14:26:19.020Z,19.296875
2019-02-04T14:26:29.103Z,19.266663
2019-02-04T14:26:39.100Z,19.23645
2019-02-04T14:27:00.889Z,19.165955
2019-02-04T14:27:10.898Z,19.196167
2019-02-04T14:27:20.901Z,19.186096
2019-02-04T14:27:30.940Z,19.186096
2019-02-04T14:27:40.901Z,19.165955
2019-02-04T14:27:50.980Z,19.165955
2019-02-04T14:28:03.438Z,19.145813
2019-02-04T14:28:20.982Z,19.145813
2019-02-04T14:28:40.983Z,19.115601
2019-02-04T14:28:51.029Z,19.125671
2019-02-04T14:29:20.940Z,19.125671
2019-02-04T14:29:33.708Z,22.177124
2019-02-04T14:30:31.069Z,25.107727
2019-02-04T14:31:01.469Z,23.597107
2019-02-04T14:31:11.030Z,23.174133
2019-02-04T14:31:21.020Z,22.801514
2019-02-04T14:31:30.981Z,22.438965
2019-02-04T14:31:41.030Z,22.12677
2019-02-04T14:31:51.020Z,21.844788
2019-02-04T14:32:01.190Z,21.593018
2019-02-04T14:32:41.109Z,20.877991
2019-02-04T14:32:52.028Z,20.737
2019-02-04T14:33:41.112Z,20.36438
2019-02-04T14:46:19.794Z,19.256592
2019-02-04T14:46:39.832Z,19.296875
2019-02-04T14:46:59.843Z,19.306946
2019-02-04T14:47:19.832Z,19.306946
2019-02-04T14:47:29.852Z,19.306946
2019-02-04T14:47:39.832Z,19.306946
2019-02-04T14:48:04.118Z,19.296875
2019-02-04T14:48:10.928Z,19.266663
2019-02-04T14:48:40.064Z,19.256592
2019-02-04T14:48:49.979Z,19.266663
2019-02-04T14:49:19.938Z,19.256592
2019-02-04T14:50:10.052Z,19.266663
2019-02-04T14:50:30.003Z,19.256592
2019-02-04T14:50:40.125Z,19.256592
2019-02-04T14:50:50.003Z,19.226379
2019-02-04T14:51:00.122Z,19.196167
2019-02-04T14:51:30.043Z,19.115601
2019-02-04T14:52:00.122Z,19.035034
2019-02-04T14:52:30.130Z,19.085388
2019-02-04T14:52:40.181Z,19.115601
2019-02-04T14:53:30.202Z,19.145813
2019-02-04T14:53:40.131Z,19.115601
2019-02-04T14:54:00.162Z,19.045105
2019-02-04T14:54:20.162Z,18.98468
2019-02-04T14:54:41.190Z,18.934326
2019-02-04T14:55:10.228Z,18.894043
2019-02-04T14:55:20.282Z,18.883972
2019-02-04T14:55:50.230Z,18.85376
2019-02-04T14:56:00.281Z,18.823547
2019-02-04T14:56:10.311Z,18.823547
2019-02-04T14:56:20.326Z,18.793335
2019-02-04T14:56:30.512Z,18.783264
2019-02-04T14:56:40.311Z,18.763123
2019-02-04T14:56:50.332Z,18.763123
2019-02-04T14:57:10.390Z,18.702698
2019-02-04T14:57:40.362Z,18.682556
2019-02-04T14:58:00.402Z,18.662415
2019-02-04T14:58:20.390Z,18.632202
2019-02-04T14:58:50.402Z,18.60199
2019-02-04T14:59:10.390Z,18.571777
2019-02-04T14:59:40.430Z,18.521423
2019-02-04T14:59:50.440Z,18.511353
2019-02-04T15:00:00.471Z,18.491211
2019-02-04T15:01:00.490Z,18.430786
2019-02-04T15:01:20.459Z,18.430786
2019-02-04T15:01:30.539Z,18.430786
2019-02-04T15:01:40.471Z,18.450928
2019-02-04T15:02:00.730Z,18.460999
2019-02-04T15:02:10.498Z,18.48114
2019-02-04T15:03:21.513Z,18.753052
2019-02-04T15:03:50.552Z,18.823547
2019-02-04T15:04:00.591Z,18.863831
2019-02-04T15:04:10.591Z,18.894043
2019-02-04T15:04:50.667Z,19.045105
2019-02-04T15:05:20.580Z,19.155884
2019-02-04T15:05:40.685Z,19.216309
2019-02-04T15:05:50.668Z,19.226379
2019-02-04T15:06:00.699Z,19.226379
2019-02-04T15:10:08.309Z,19.186096
2019-02-04T15:10:18.319Z,19.226379
2019-02-04T15:10:38.262Z,19.226379
2019-02-04T15:10:48.381Z,19.216309
2019-02-04T15:11:28.461Z,19.216309
2019-02-04T15:11:38.652Z,19.226379
2019-02-04T15:11:58.583Z,19.216309
2019-02-04T15:12:08.570Z,19.226379
2019-02-04T15:12:28.612Z,19.226379
2019-02-04T15:12:38.651Z,19.226379
2019-02-04T15:12:48.787Z,19.23645
2019-02-04T15:13:18.768Z,19.226379
2019-02-04T15:13:28.887Z,19.226379
2019-02-04T15:14:09.106Z,19.196167
2019-02-04T15:14:19.104Z,19.216309
2019-02-04T15:14:39.173Z,19.165955
2019-02-04T15:14:49.344Z,19.155884
2019-02-04T15:14:59.224Z,19.145813
2019-02-04T15:15:19.255Z,19.145813
2019-02-04T15:15:39.334Z,19.075317
2019-02-04T15:15:50.046Z,19.075317
2019-02-04T15:15:59.495Z,19.045105
2019-02-04T15:16:09.538Z,19.035034
2019-02-04T15:16:20.057Z,19.045105
2019-02-04T15:16:29.702Z,19.014893
2019-02-04T15:16:40.562Z,19.035034
2019-02-04T15:16:49.770Z,19.035034
2019-02-04T15:16:59.804Z,19.014893
2019-02-04T15:17:09.816Z,19.014893
2019-02-04T15:17:19.915Z,19.035034
2019-02-04T15:17:29.969Z,19.035034
2019-02-04T15:17:40.058Z,19.014893
2019-02-04T15:17:50.289Z,19.035034
2019-02-04T15:18:00.248Z,19.004822
2019-02-04T15:18:10.489Z,19.014893
2019-02-04T15:18:20.409Z,19.014893
2019-02-04T15:18:40.587Z,19.045105
2019-02-04T15:18:50.650Z,19.065247
2019-02-04T15:19:10.769Z,19.085388
2019-02-04T15:19:20.857Z,19.085388
2019-02-04T15:19:30.978Z,19.145813
2019-02-04T15:19:41.057Z,19.155884
2019-02-04T15:19:50.969Z,19.125671
2019-02-04T15:20:01.089Z,19.145813
2019-02-04T15:20:11.252Z,19.155884
2019-02-04T15:20:21.253Z,19.165955
2019-02-04T15:20:31.210Z,19.155884
2019-02-04T15:20:41.409Z,19.155884
2019-02-04T15:20:51.460Z,19.165955
2019-02-04T15:21:11.339Z,19.165955
2019-02-04T15:21:22.059Z,19.145813
2019-02-04T15:21:31.659Z,19.145813
2019-02-04T15:21:43.205Z,19.155884
2019-02-04T15:21:52.738Z,19.125671
2019-02-04T15:22:01.791Z,19.125671
2019-02-04T15:22:32.774Z,19.085388
2019-02-04T15:22:33.744Z,19.085388
2019-02-04T15:23:01.950Z,19.065247
2019-02-04T15:23:21.910Z,19.065247
2019-02-04T15:23:31.937Z,19.075317
2019-02-04T15:23:51.978Z,19.085388
2019-02-04T15:24:08.539Z,19.125671
2019-02-04T15:24:13.059Z,19.125671
2019-02-04T15:24:22.031Z,19.145813
2019-02-04T15:24:32.219Z,19.155884
2019-02-04T15:24:52.300Z,19.165955
2019-02-04T15:25:02.309Z,19.165955
2019-02-04T15:25:12.340Z,19.186096
2019-02-04T15:25:22.477Z,19.155884
2019-02-04T15:25:33.061Z,19.145813
2019-02-04T15:25:52.550Z,19.155884
2019-02-04T15:26:02.460Z,19.125671
2019-02-04T15:26:12.539Z,19.115601
2019-02-04T15:26:22.539Z,19.145813
2019-02-04T15:26:32.670Z,19.155884
2019-02-04T15:26:42.700Z,19.155884
2019-02-04T15:26:52.836Z,19.165955
2019-02-04T15:27:02.899Z,19.155884
2019-02-04T15:27:12.942Z,19.186096
2019-02-04T15:27:23.099Z,19.165955
2019-02-04T15:27:33.293Z,19.165955
2019-02-04T15:27:53.223Z,19.165955
2019-02-04T15:28:04.339Z,19.165955
2019-02-04T15:28:13.419Z,19.155884
2019-02-04T15:28:23.510Z,19.145813
2019-02-04T15:28:33.589Z,19.155884
2019-02-04T15:28:43.579Z,19.165955
2019-02-04T15:28:53.620Z,19.165955
2019-02-04T15:29:23.713Z,19.165955
2019-02-04T15:29:33.859Z,19.186096
2019-02-04T15:29:46.575Z,19.216309
2019-02-04T15:30:03.860Z,19.196167
2019-02-04T15:30:13.911Z,19.165955
2019-02-04T15:30:23.991Z,19.165955
2019-02-04T15:30:33.989Z,19.186096
2019-02-04T15:30:44.071Z,19.226379
2019-02-04T15:31:14.147Z,19.216309
2019-02-04T15:31:34.096Z,19.226379
2019-02-04T15:31:44.135Z,19.216309
2019-02-04T15:31:54.181Z,19.216309
2019-02-04T15:32:04.222Z,19.196167
2019-02-04T15:32:24.221Z,19.155884
2019-02-04T15:32:34.421Z,19.165955
2019-02-04T15:32:44.381Z,19.155884
2019-02-04T15:32:54.419Z,19.165955
2019-02-04T15:33:04.368Z,19.155884
2019-02-04T15:33:14.510Z,19.155884
2019-02-04T15:33:24.607Z,19.145813
2019-02-04T15:33:54.608Z,19.165955
2019-02-04T15:34:04.611Z,19.165955
2019-02-04T15:34:14.648Z,19.186096
2019-02-04T15:34:24.688Z,19.155884
2019-02-04T15:35:04.025Z,19.125671
2019-02-04T15:35:05.930Z,19.145813
2019-02-04T15:35:14.968Z,19.155884
2019-02-04T15:35:25.056Z,19.145813
2019-02-04T15:35:35.242Z,19.155884
2019-02-04T15:35:46.331Z,19.165955
2019-02-04T15:35:55.206Z,19.145813
2019-02-04T15:36:05.203Z,19.145813
2019-02-04T15:36:15.203Z,19.155884
2019-02-04T15:36:25.343Z,19.155884
2019-02-04T15:36:35.449Z,19.155884
2019-02-04T15:36:45.443Z,19.145813
2019-02-04T15:37:05.430Z,19.155884
2019-02-04T15:37:35.774Z,19.165955
2019-02-04T15:38:05.555Z,19.145813
2019-02-04T15:38:25.633Z,19.145813
2019-02-04T15:38:45.682Z,19.115601
2019-02-04T15:39:25.752Z,19.115601
2019-02-04T15:39:36.343Z,19.125671
2019-02-04T15:39:45.742Z,19.115601
2019-02-04T15:39:55.837Z,19.115601
2019-02-04T15:40:05.917Z,19.075317
2019-02-04T15:40:35.942Z,19.115601
2019-02-04T15:40:56.158Z,19.065247
2019-02-04T15:41:06.082Z,19.065247
2019-02-04T15:41:16.082Z,19.065247
2019-02-04T15:41:26.083Z,19.045105
2019-02-04T15:41:36.176Z,19.035034
2019-02-04T15:41:46.125Z,19.014893
2019-02-04T15:41:57.229Z,19.014893
2019-02-04T15:42:06.195Z,19.045105
2019-02-04T15:42:16.291Z,19.014893
2019-02-04T15:42:32.065Z,19.004822
2019-02-04T15:42:56.356Z,18.98468
2019-02-04T15:43:16.452Z,18.974609
2019-02-04T15:43:26.396Z,18.98468
2019-02-04T15:43:36.395Z,18.974609
2019-02-04T15:43:56.476Z,18.944397
2019-02-04T15:44:06.566Z,18.964539
2019-02-04T15:44:16.645Z,18.974609
2019-02-04T15:44:27.677Z,18.98468
2019-02-04T15:44:36.728Z,19.035034
2019-02-04T15:44:46.772Z,19.045105
2019-02-04T15:44:57.797Z,19.014893
2019-02-04T15:45:06.832Z,19.035034
2019-02-04T15:45:16.846Z,19.014893
2019-02-04T15:45:26.952Z,19.035034
2019-02-04T15:45:36.991Z,19.035034
2019-02-04T15:45:47.049Z,19.045105
2019-02-04T15:46:07.151Z,19.004822
2019-02-04T15:46:17.272Z,19.014893
2019-02-04T15:46:27.233Z,19.014893
2019-02-04T15:46:37.324Z,19.014893
2019-02-04T15:46:47.364Z,19.004822
2019-02-04T15:46:57.449Z,19.004822
2019-02-04T15:47:07.494Z,19.004822
2019-02-04T15:47:27.509Z,18.98468
2019-02-04T15:47:37.516Z,18.98468
2019-02-04T15:47:47.548Z,19.004822
2019-02-04T15:47:57.550Z,18.98468
2019-02-04T15:48:17.668Z,19.035034
2019-02-04T15:48:37.829Z,19.014893
2019-02-04T15:48:47.908Z,19.045105
2019-02-04T15:48:57.988Z,19.014893
2019-02-04T15:49:07.988Z,19.014893
2019-02-04T15:49:18.947Z,19.004822
2019-02-04T15:49:28.157Z,18.964539
2019-02-04T15:49:50.138Z,18.974609
2019-02-04T15:49:50.520Z,18.98468
2019-02-04T15:49:59.388Z,18.964539
2019-02-04T15:50:08.428Z,18.974609
2019-02-04T15:50:18.388Z,18.974609
2019-02-04T15:50:38.358Z,18.944397
2019-02-04T15:50:58.998Z,18.964539
2019-02-04T15:51:08.548Z,18.964539
2019-02-04T15:51:38.679Z,18.974609
2019-02-04T15:51:48.719Z,18.974609
2019-02-04T15:52:18.749Z,18.944397
2019-02-04T15:52:28.805Z,18.964539
2019-02-04T15:52:45.268Z,18.934326
2019-02-04T15:52:49.990Z,18.914185
2019-02-04T15:53:29.066Z,18.944397
2019-02-04T15:53:49.000Z,18.974609
2019-02-04T15:53:59.081Z,18.964539
2019-02-04T15:54:09.040Z,18.974609
2019-02-04T15:54:19.007Z,18.974609
2019-02-04T15:54:38.998Z,18.944397
2019-02-04T15:54:59.078Z,18.944397
2019-02-04T15:55:09.125Z,18.964539
2019-02-04T15:55:19.158Z,18.964539
2019-02-04T15:55:40.046Z,19.004822
2019-02-04T15:55:50.292Z,19.004822
2019-02-04T15:55:59.371Z,19.045105
2019-02-04T15:56:09.532Z,19.065247
2019-02-04T15:56:19.452Z,19.085388
2019-02-04T15:56:29.531Z,19.115601
2019-02-04T15:56:39.565Z,19.125671
2019-02-04T15:56:49.532Z,19.145813
2019-02-04T15:56:59.613Z,19.145813
2019-02-04T15:57:09.734Z,19.165955
2019-02-04T15:57:29.891Z,19.216309
2019-02-04T15:57:40.011Z,19.23645
2019-02-04T15:57:50.087Z,19.256592
2019-02-04T15:58:20.274Z,19.337158
2019-02-04T15:58:30.296Z,19.367371
2019-02-04T15:58:40.474Z,19.387512
2019-02-04T15:58:50.434Z,19.387512
2019-02-04T15:59:00.514Z,19.387512
2019-02-04T15:59:10.560Z,19.387512
2019-02-04T15:59:20.601Z,19.407654
2019-02-04T15:59:40.722Z,19.417725
2019-02-04T15:59:50.690Z,19.468079
2019-02-04T16:00:10.665Z,19.48822
2019-02-04T16:00:20.652Z,19.48822
2019-02-04T16:00:30.754Z,19.447937
2019-02-04T16:00:40.720Z,19.468079
2019-02-04T16:00:50.759Z,19.447937
2019-02-04T16:01:04.129Z,19.437866
2019-02-04T16:01:11.951Z,19.417725
2019-02-04T16:01:20.760Z,19.417725
2019-02-04T16:01:30.930Z,19.407654
2019-02-04T16:01:50.970Z,19.407654
2019-02-04T16:02:01.082Z,19.417725
2019-02-04T16:02:11.162Z,19.407654
2019-02-04T16:02:21.210Z,19.377441
2019-02-04T16:02:31.164Z,19.337158
2019-02-04T16:02:41.371Z,19.337158
2019-02-04T16:02:51.374Z,19.317017
2019-02-04T16:03:11.403Z,19.296875
2019-02-04T16:03:21.450Z,19.296875
2019-02-04T16:03:31.605Z,19.296875
2019-02-04T16:03:41.563Z,19.296875
2019-02-04T16:04:11.763Z,19.23645
2019-02-04T16:04:21.844Z,19.226379
2019-02-04T16:04:31.930Z,19.23645
2019-02-04T16:04:41.923Z,19.226379
2019-02-04T16:04:51.971Z,19.196167
2019-02-04T16:05:11.963Z,19.196167
2019-02-04T16:05:22.002Z,19.216309
2019-02-04T16:05:52.011Z,19.196167
2019-02-04T16:06:02.211Z,19.196167
2019-02-04T16:06:22.090Z,19.196167
2019-02-04T16:06:32.051Z,19.216309
2019-02-04T16:06:42.099Z,19.196167
2019-02-04T16:06:52.111Z,19.196167
2019-02-04T16:07:02.159Z,19.196167
2019-02-04T16:07:12.299Z,19.216309
2019-02-04T16:07:23.927Z,19.216309
2019-02-04T16:07:33.309Z,19.216309
2019-02-04T16:07:42.552Z,19.165955
2019-02-04T16:07:52.545Z,19.165955
2019-02-04T16:08:02.471Z,19.145813
2019-02-04T16:08:12.513Z,19.125671
2019-02-04T16:08:42.533Z,19.045105
2019-02-04T16:08:52.581Z,19.035034
2019-02-04T16:09:02.576Z,19.035034
2019-02-04T16:09:13.592Z,19.014893
2019-02-04T16:09:22.660Z,19.004822
2019-02-04T16:09:32.673Z,18.98468
2019-02-04T16:09:42.662Z,19.014893
2019-02-04T16:10:12.677Z,19.065247
2019-02-04T16:10:22.673Z,19.065247
2019-02-04T16:10:32.833Z,19.075317
2019-02-04T16:10:42.842Z,19.085388
2019-02-04T16:10:52.924Z,19.115601
2019-02-04T16:11:03.163Z,19.125671
2019-02-04T16:11:12.964Z,19.115601
2019-02-04T16:11:33.060Z,19.115601
2019-02-04T16:11:43.003Z,19.115601
2019-02-04T16:12:03.067Z,19.155884
2019-02-04T16:12:13.084Z,19.155884
2019-02-04T16:12:23.083Z,19.155884
2019-02-04T16:12:34.171Z,19.155884
2019-02-04T16:12:43.204Z,19.155884
2019-02-04T16:12:53.205Z,19.155884
2019-02-04T16:13:13.365Z,19.125671
2019-02-04T16:13:33.324Z,19.125671
2019-02-04T16:13:43.325Z,19.125671
2019-02-04T16:13:53.444Z,19.115601
2019-02-04T16:14:03.451Z,19.115601
2019-02-04T16:14:13.431Z,19.155884
2019-02-04T16:14:23.412Z,19.145813
2019-02-04T16:14:33.431Z,19.125671
2019-02-04T16:14:43.486Z,19.125671
2019-02-04T16:14:53.556Z,19.145813
2019-02-04T16:15:03.555Z,19.145813
2019-02-04T16:15:13.574Z,19.145813
2019-02-04T16:15:23.636Z,19.125671
2019-02-04T16:15:33.635Z,19.125671
2019-02-04T16:15:53.824Z,19.145813
2019-02-04T16:16:03.783Z,19.155884
2019-02-04T16:16:23.821Z,19.155884
2019-02-04T16:16:33.861Z,19.145813
2019-02-04T16:16:43.849Z,19.155884
2019-02-04T16:17:14.059Z,19.145813
2019-02-04T16:17:24.065Z,19.155884
2019-02-04T16:17:34.140Z,19.155884
2019-02-04T16:17:44.172Z,19.155884
2019-02-04T16:17:54.178Z,19.115601
2019-02-04T16:18:14.339Z,19.075317
2019-02-04T16:18:24.333Z,19.075317
2019-02-04T16:18:44.491Z,19.045105
2019-02-04T16:18:54.670Z,19.035034
2019-02-04T16:19:05.651Z,19.014893
2019-02-04T16:19:24.722Z,18.98468
2019-02-04T16:19:34.722Z,18.964539
2019-02-04T16:19:54.786Z,18.914185
2019-02-04T16:20:04.856Z,18.883972
2019-02-04T16:20:15.113Z,18.883972
2019-02-04T16:20:24.992Z,18.85376
2019-02-04T16:20:35.082Z,18.85376
2019-02-04T16:20:45.274Z,18.863831
2019-02-04T16:20:55.279Z,18.894043
2019-02-04T16:21:05.311Z,18.914185
2019-02-04T16:21:15.633Z,18.914185
2019-02-04T16:21:25.583Z,18.894043
2019-02-04T16:21:45.566Z,18.894043
2019-02-04T16:21:55.762Z,18.914185
2019-02-04T16:22:05.813Z,18.914185
2019-02-04T16:22:15.842Z,18.914185
2019-02-04T16:22:25.852Z,18.934326
2019-02-04T16:22:35.979Z,18.894043
2019-02-04T16:22:58.760Z,18.894043
2019-02-04T16:23:15.923Z,18.863831
2019-02-04T16:23:25.923Z,18.883972
2019-02-04T16:23:36.162Z,18.863831
2019-02-04T16:23:46.162Z,18.863831
2019-02-04T16:24:06.203Z,18.863831
2019-02-04T16:24:16.212Z,18.85376
2019-02-04T16:24:26.203Z,18.833618
2019-02-04T16:24:36.222Z,18.833618
2019-02-04T16:24:46.332Z,18.813477
2019-02-04T16:25:06.442Z,18.833618
2019-02-04T16:25:26.482Z,18.863831
2019-02-04T16:25:36.523Z,18.863831
2019-02-04T16:25:46.652Z,18.863831
2019-02-04T16:25:56.681Z,18.863831
2019-02-04T16:26:06.705Z,18.85376
2019-02-04T16:26:16.866Z,18.85376
2019-02-04T16:26:26.750Z,18.833618
2019-02-04T16:26:36.759Z,18.823547
2019-02-04T16:27:06.826Z,18.833618
2019-02-04T16:27:16.999Z,18.823547
2019-02-04T16:27:27.066Z,18.823547
2019-02-04T16:27:37.099Z,18.833618
2019-02-04T16:27:47.157Z,18.813477
2019-02-04T16:27:57.277Z,18.813477
2019-02-04T16:28:17.357Z,18.833618
2019-02-04T16:28:27.386Z,18.85376
2019-02-04T16:28:37.346Z,18.883972
